sensor_id;sensor_type;location;lat;lon;timestamp;pressure;altitude;pressure_sealevel;temperature;humidity
24752;BME280;27246;52.376;4.628;2022-11-18T00:01:34;99228.13;;;7.41;100.00
24752;BME280;27246;52.376;4.628;2022-11-18T00:06:36;99238.88;;;7.43;100.00
24752;BME280;27246;52.376;4.628;2022-11-18T00:11:38;99239.94;;;7.41;100.00
24752;BME280;27246;52.376;4.628;2022-11-18T00:17:00;99246.25;;;7.42;100.00
24752;BME280;27246;52.376;4.628;2022-11-18T00:22:07;99250.63;;;7.36;100.00
24752;BME280;27246;52.376;4.628;2022-11-18T00:27:11;99250.81;;;7.28;100.00
24752;BME280;27246;52.376;4.628;2022-11-18T00:32:13;99265.53;;;7.27;100.00
24752;BME280;27246;52.376;4.628;2022-11-18T00:37:14;99272.72;;;7.28;100.00
24752;BME280;27246;52.376;4.628;2022-11-18T00:42:16;99285.13;;;7.24;100.00
24752;BME280;27246;52.376;4.628;2022-11-18T00:47:36;99293.56;;;7.29;100.00
24752;BME280;27246;52.376;4.628;2022-11-18T00:52:38;99295.22;;;7.24;100.00
24752;BME280;27246;52.376;4.628;2022-11-18T00:57:40;99309.34;;;7.27;100.00
24752;BME280;27246;52.376;4.628;2022-11-18T01:02:42;99322.16;;;7.20;100.00
24752;BME280;27246;52.376;4.628;2022-11-18T01:07:44;99321.72;;;7.16;100.00
24752;BME280;27246;52.376;4.628;2022-11-18T01:12:46;99321.31;;;7.19;100.00
24752;BME280;27246;52.376;4.628;2022-11-18T01:18:06;99310.06;;;7.08;100.00
24752;BME280;27246;52.376;4.628;2022-11-18T01:23:08;99326.06;;;7.04;100.00
24752;BME280;27246;52.376;4.628;2022-11-18T01:28:11;99337.81;;;6.98;100.00
24752;BME280;27246;52.376;4.628;2022-11-18T01:33:13;99341.78;;;6.95;100.00
24752;BME280;27246;52.376;4.628;2022-11-18T01:38:16;99339.25;;;6.94;100.00
24752;BME280;27246;52.376;4.628;2022-11-18T01:43:19;99347.00;;;6.90;100.00
24752;BME280;27246;52.376;4.628;2022-11-18T01:48:30;99348.50;;;6.93;100.00
24752;BME280;27246;52.376;4.628;2022-11-18T01:53:37;99358.75;;;6.84;100.00
24752;BME280;27246;52.376;4.628;2022-11-18T01:58:48;99365.25;;;6.83;100.00
24752;BME280;27246;52.376;4.628;2022-11-18T02:03:53;99369.06;;;6.82;100.00
24752;BME280;27246;52.376;4.628;2022-11-18T02:08:55;99370.72;;;6.83;100.00
24752;BME280;27246;52.376;4.628;2022-11-18T02:13:57;99386.91;;;6.78;100.00
24752;BME280;27246;52.376;4.628;2022-11-18T02:19:05;99401.44;;;6.78;100.00
24752;BME280;27246;52.376;4.628;2022-11-18T02:29:55;99401.56;;;6.70;100.00
24752;BME280;27246;52.376;4.628;2022-11-18T02:35:42;99411.91;;;6.75;100.00
24752;BME280;27246;52.376;4.628;2022-11-18T02:40:40;99411.91;;;6.75;100.00
24752;BME280;27246;52.376;4.628;2022-11-18T02:45:53;99416.94;;;6.71;100.00
24752;BME280;27246;52.376;4.628;2022-11-18T02:50:57;99424.16;;;6.79;100.00
24752;BME280;27246;52.376;4.628;2022-11-18T02:56:01;99420.97;;;6.75;100.00
24752;BME280;27246;52.376;4.628;2022-11-18T03:01:03;99418.00;;;6.70;100.00
24752;BME280;27246;52.376;4.628;2022-11-18T03:06:36;99427.56;;;6.81;100.00
24752;BME280;27246;52.376;4.628;2022-11-18T03:11:57;99437.72;;;6.66;100.00
24752;BME280;27246;52.376;4.628;2022-11-18T03:17:15;99436.66;;;6.67;100.00
24752;BME280;27246;52.376;4.628;2022-11-18T03:22:37;99438.75;;;6.65;100.00
24752;BME280;27246;52.376;4.628;2022-11-18T03:27:59;99443.19;;;6.66;100.00
24752;BME280;27246;52.376;4.628;2022-11-18T03:33:08;99444.53;;;6.55;100.00
24752;BME280;27246;52.376;4.628;2022-11-18T03:38:17;99451.72;;;6.56;100.00
24752;BME280;27246;52.376;4.628;2022-11-18T03:43:23;99458.03;;;6.56;100.00
24752;BME280;27246;52.376;4.628;2022-11-18T03:48:35;99455.00;;;6.51;100.00
24752;BME280;27246;52.376;4.628;2022-11-18T03:53:43;99460.31;;;6.53;100.00
24752;BME280;27246;52.376;4.628;2022-11-18T03:58:55;99464.94;;;6.52;100.00
24752;BME280;27246;52.376;4.628;2022-11-18T04:03:58;99465.41;;;6.56;100.00
24752;BME280;27246;52.376;4.628;2022-11-18T04:09:04;99484.16;;;6.59;100.00
24752;BME280;27246;52.376;4.628;2022-11-18T04:14:08;99495.97;;;6.59;100.00
24752;BME280;27246;52.376;4.628;2022-11-18T04:19:11;99495.97;;;6.59;100.00
24752;BME280;27246;52.376;4.628;2022-11-18T04:24:13;99508.22;;;6.64;100.00
24752;BME280;27246;52.376;4.628;2022-11-18T04:29:14;99508.47;;;6.69;100.00
24752;BME280;27246;52.376;4.628;2022-11-18T04:34:17;99515.00;;;6.68;100.00
24752;BME280;27246;52.376;4.628;2022-11-18T04:39:18;99514.34;;;6.66;100.00
24752;BME280;27246;52.376;4.628;2022-11-18T04:49:27;99540.00;;;6.65;100.00
24752;BME280;27246;52.376;4.628;2022-11-18T04:54:29;99549.06;;;6.65;100.00
24752;BME280;27246;52.376;4.628;2022-11-18T04:59:32;99563.84;;;6.71;100.00
24752;BME280;27246;52.376;4.628;2022-11-18T05:04:34;99560.47;;;6.69;100.00
24752;BME280;27246;52.376;4.628;2022-11-18T05:09:36;99570.00;;;6.73;100.00
24752;BME280;27246;52.376;4.628;2022-11-18T05:14:37;99573.19;;;6.76;100.00
24752;BME280;27246;52.376;4.628;2022-11-18T05:19:39;99572.25;;;6.84;100.00
24752;BME280;27246;52.376;4.628;2022-11-18T05:24:41;99576.66;;;6.85;100.00
24752;BME280;27246;52.376;4.628;2022-11-18T05:29:42;99578.38;;;6.86;100.00
24752;BME280;27246;52.376;4.628;2022-11-18T05:34:44;99585.00;;;6.77;100.00
24752;BME280;27246;52.376;4.628;2022-11-18T05:39:46;99599.63;;;6.84;100.00
24752;BME280;27246;52.376;4.628;2022-11-18T05:44:48;99602.72;;;6.81;100.00
24752;BME280;27246;52.376;4.628;2022-11-18T05:50:04;99601.47;;;6.84;100.00
24752;BME280;27246;52.376;4.628;2022-11-18T05:55:07;99598.97;;;6.82;100.00
24752;BME280;27246;52.376;4.628;2022-11-18T06:00:11;99600.63;;;6.83;100.00
24752;BME280;27246;52.376;4.628;2022-11-18T06:05:42;99611.59;;;6.83;100.00
24752;BME280;27246;52.376;4.628;2022-11-18T06:10:45;99619.44;;;6.86;100.00
24752;BME280;27246;52.376;4.628;2022-11-18T06:15:47;99633.50;;;6.83;100.00
24752;BME280;27246;52.376;4.628;2022-11-18T06:20:51;99630.41;;;7.08;100.00
24752;BME280;27246;52.376;4.628;2022-11-18T06:25:54;99639.63;;;7.00;100.00
24752;BME280;27246;52.376;4.628;2022-11-18T06:30:55;99648.19;;;6.97;100.00
24752;BME280;27246;52.376;4.628;2022-11-18T06:36:19;99671.81;;;6.83;100.00
24752;BME280;27246;52.376;4.628;2022-11-18T06:41:20;99672.00;;;6.81;100.00
24752;BME280;27246;52.376;4.628;2022-11-18T06:46:27;99684.72;;;6.89;100.00
24752;BME280;27246;52.376;4.628;2022-11-18T06:51:48;99693.34;;;6.86;100.00
24752;BME280;27246;52.376;4.628;2022-11-18T06:56:50;99702.75;;;6.84;100.00
24752;BME280;27246;52.376;4.628;2022-11-18T07:01:51;99699.09;;;6.76;100.00
24752;BME280;27246;52.376;4.628;2022-11-18T07:06:55;99706.56;;;6.68;100.00
24752;BME280;27246;52.376;4.628;2022-11-18T07:11:56;99723.44;;;6.71;100.00
24752;BME280;27246;52.376;4.628;2022-11-18T07:16:58;99728.06;;;6.71;100.00
24752;BME280;27246;52.376;4.628;2022-11-18T07:22:00;99732.59;;;6.64;100.00
24752;BME280;27246;52.376;4.628;2022-11-18T07:27:02;99749.28;;;6.69;100.00
24752;BME280;27246;52.376;4.628;2022-11-18T07:32:04;99760.41;;;6.67;100.00
24752;BME280;27246;52.376;4.628;2022-11-18T07:37:06;99775.63;;;6.70;100.00
24752;BME280;27246;52.376;4.628;2022-11-18T07:42:08;99777.41;;;6.77;100.00
24752;BME280;27246;52.376;4.628;2022-11-18T07:47:10;99783.84;;;6.70;100.00
24752;BME280;27246;52.376;4.628;2022-11-18T07:52:12;99785.44;;;6.79;100.00
24752;BME280;27246;52.376;4.628;2022-11-18T07:57:14;99793.38;;;6.74;100.00
24752;BME280;27246;52.376;4.628;2022-11-18T08:02:15;99793.84;;;6.77;100.00
24752;BME280;27246;52.376;4.628;2022-11-18T08:07:18;99795.44;;;6.72;100.00
24752;BME280;27246;52.376;4.628;2022-11-18T08:12:20;99810.66;;;6.74;100.00
24752;BME280;27246;52.376;4.628;2022-11-18T08:17:22;99829.63;;;6.76;100.00
24752;BME280;27246;52.376;4.628;2022-11-18T08:22:23;99829.41;;;6.77;100.00
24752;BME280;27246;52.376;4.628;2022-11-18T08:27:25;99840.56;;;6.76;100.00
24752;BME280;27246;52.376;4.628;2022-11-18T08:32:27;99840.75;;;6.74;100.00
24752;BME280;27246;52.376;4.628;2022-11-18T08:37:28;99847.25;;;6.73;100.00
24752;BME280;27246;52.376;4.628;2022-11-18T08:42:30;99846.16;;;6.82;100.00
24752;BME280;27246;52.376;4.628;2022-11-18T08:47:35;99859.00;;;6.82;100.00
24752;BME280;27246;52.376;4.628;2022-11-18T08:52:37;99855.34;;;6.90;100.00
24752;BME280;27246;52.376;4.628;2022-11-18T08:57:39;99856.34;;;6.89;100.00
24752;BME280;27246;52.376;4.628;2022-11-18T09:02:41;99862.31;;;6.92;100.00
24752;BME280;27246;52.376;4.628;2022-11-18T09:07:43;99871.47;;;6.99;100.00
24752;BME280;27246;52.376;4.628;2022-11-18T09:12:45;99879.03;;;6.97;100.00
24752;BME280;27246;52.376;4.628;2022-11-18T09:17:46;99883.09;;;7.01;100.00
24752;BME280;27246;52.376;4.628;2022-11-18T09:22:48;99893.97;;;7.10;100.00
24752;BME280;27246;52.376;4.628;2022-11-18T09:27:50;99907.56;;;7.18;100.00
24752;BME280;27246;52.376;4.628;2022-11-18T09:32:53;99911.28;;;7.25;100.00
24752;BME280;27246;52.376;4.628;2022-11-18T09:37:54;99908.09;;;7.36;100.00
24752;BME280;27246;52.376;4.628;2022-11-18T09:43:05;99908.41;;;7.41;100.00
24752;BME280;27246;52.376;4.628;2022-11-18T09:48:18;99917.94;;;7.46;100.00
24752;BME280;27246;52.376;4.628;2022-11-18T09:53:23;99925.88;;;7.40;100.00
24752;BME280;27246;52.376;4.628;2022-11-18T09:58:33;99932.31;;;7.48;100.00
24752;BME280;27246;52.376;4.628;2022-11-18T10:03:37;99932.06;;;7.57;100.00
24752;BME280;27246;52.376;4.628;2022-11-18T10:08:41;99944.50;;;7.60;100.00
24752;BME280;27246;52.376;4.628;2022-11-18T10:19:29;99955.03;;;7.71;100.00
24752;BME280;27246;52.376;4.628;2022-11-18T10:24:38;99963.44;;;7.85;100.00
24752;BME280;27246;52.376;4.628;2022-11-18T10:29:43;99965.06;;;7.94;100.00
24752;BME280;27246;52.376;4.628;2022-11-18T10:34:49;99976.41;;;8.06;100.00
24752;BME280;27246;52.376;4.628;2022-11-18T10:39:53;99983.38;;;8.08;100.00
24752;BME280;27246;52.376;4.628;2022-11-18T10:45:14;99984.72;;;8.12;100.00
24752;BME280;27246;52.376;4.628;2022-11-18T10:50:33;99985.56;;;8.13;100.00
24752;BME280;27246;52.376;4.628;2022-11-18T10:55:35;99990.50;;;8.17;100.00
24752;BME280;27246;52.376;4.628;2022-11-18T11:00:47;100000.59;;;8.32;100.00
24752;BME280;27246;52.376;4.628;2022-11-18T11:06:19;99994.81;;;8.27;100.00
24752;BME280;27246;52.376;4.628;2022-11-18T11:11:30;99990.38;;;8.26;100.00
24752;BME280;27246;52.376;4.628;2022-11-18T11:16:38;99998.88;;;8.31;100.00
24752;BME280;27246;52.376;4.628;2022-11-18T11:21:43;99997.13;;;8.23;100.00
24752;BME280;27246;52.376;4.628;2022-11-18T11:27:14;99998.50;;;8.34;100.00
24752;BME280;27246;52.376;4.628;2022-11-18T11:44:16;100019.63;;;8.33;100.00
24752;BME280;27246;52.376;4.628;2022-11-18T11:49:28;100019.22;;;8.36;100.00
24752;BME280;27246;52.376;4.628;2022-11-18T11:54:56;100023.13;;;8.27;100.00
24752;BME280;27246;52.376;4.628;2022-11-18T12:00:06;100029.53;;;8.34;100.00
24752;BME280;27246;52.376;4.628;2022-11-18T12:05:29;100027.63;;;8.35;100.00
24752;BME280;27246;52.376;4.628;2022-11-18T12:11:13;100031.91;;;8.23;100.00
24752;BME280;27246;52.376;4.628;2022-11-18T12:26:46;100038.16;;;8.31;100.00
24752;BME280;27246;52.376;4.628;2022-11-18T12:31:52;100037.00;;;8.40;100.00
24752;BME280;27246;52.376;4.628;2022-11-18T12:36:55;100037.66;;;8.43;100.00
24752;BME280;27246;52.376;4.628;2022-11-18T12:41:58;100045.13;;;8.49;100.00
24752;BME280;27246;52.376;4.628;2022-11-18T12:52:44;100065.19;;;8.49;100.00
24752;BME280;27246;52.376;4.628;2022-11-18T12:57:46;100061.06;;;8.53;100.00
24752;BME280;27246;52.376;4.628;2022-11-18T13:02:54;100070.59;;;8.57;100.00
24752;BME280;27246;52.376;4.628;2022-11-18T13:08:03;100070.50;;;8.51;100.00
24752;BME280;27246;52.376;4.628;2022-11-18T13:13:34;100079.56;;;8.51;100.00
24752;BME280;27246;52.376;4.628;2022-11-18T13:18:48;100079.03;;;8.56;100.00
24752;BME280;27246;52.376;4.628;2022-11-18T13:23:59;100074.28;;;8.65;100.00
24752;BME280;27246;52.376;4.628;2022-11-18T13:29:16;100079.00;;;8.71;100.00
24752;BME280;27246;52.376;4.628;2022-11-18T13:34:23;100089.72;;;8.66;100.00
24752;BME280;27246;52.376;4.628;2022-11-18T13:39:31;100087.41;;;8.69;100.00
24752;BME280;27246;52.376;4.628;2022-11-18T13:44:35;100088.75;;;8.73;100.00
24752;BME280;27246;52.376;4.628;2022-11-18T13:50:10;100101.44;;;8.74;100.00
24752;BME280;27246;52.376;4.628;2022-11-18T13:55:15;100109.28;;;8.77;100.00
24752;BME280;27246;52.376;4.628;2022-11-18T14:00:31;100108.72;;;8.82;100.00
24752;BME280;27246;52.376;4.628;2022-11-18T14:05:34;100108.91;;;8.80;100.00
24752;BME280;27246;52.376;4.628;2022-11-18T14:10:44;100113.09;;;8.76;100.00
24752;BME280;27246;52.376;4.628;2022-11-18T14:15:59;100118.41;;;8.78;100.00
24752;BME280;27246;52.376;4.628;2022-11-18T14:21:04;100116.66;;;8.77;100.00
24752;BME280;27246;52.376;4.628;2022-11-18T14:26:06;100127.28;;;8.80;100.00
24752;BME280;27246;52.376;4.628;2022-11-18T14:31:27;100133.81;;;8.79;100.00
24752;BME280;27246;52.376;4.628;2022-11-18T14:36:30;100138.56;;;8.70;100.00
24752;BME280;27246;52.376;4.628;2022-11-18T14:41:31;100148.13;;;8.74;100.00
24752;BME280;27246;52.376;4.628;2022-11-18T14:46:51;100155.88;;;8.71;100.00
24752;BME280;27246;52.376;4.628;2022-11-18T14:51:55;100155.69;;;8.72;100.00
24752;BME280;27246;52.376;4.628;2022-11-18T14:57:00;100163.28;;;8.70;100.00
24752;BME280;27246;52.376;4.628;2022-11-18T15:02:03;100169.03;;;8.75;100.00
24752;BME280;27246;52.376;4.628;2022-11-18T15:07:14;100174.84;;;8.66;100.00
24752;BME280;27246;52.376;4.628;2022-11-18T15:12:24;100176.63;;;8.58;100.00
24752;BME280;27246;52.376;4.628;2022-11-18T15:17:35;100179.25;;;8.67;100.00
24752;BME280;27246;52.376;4.628;2022-11-18T15:22:42;100189.69;;;8.56;100.00
24752;BME280;27246;52.376;4.628;2022-11-18T15:27:44;100186.56;;;8.59;100.00
24752;BME280;27246;52.376;4.628;2022-11-18T15:32:46;100198.88;;;8.64;100.00
24752;BME280;27246;52.376;4.628;2022-11-18T15:37:47;100206.16;;;8.56;100.00
24752;BME280;27246;52.376;4.628;2022-11-18T15:42:49;100203.41;;;8.56;100.00
24752;BME280;27246;52.376;4.628;2022-11-18T15:47:56;100212.38;;;8.50;100.00
24752;BME280;27246;52.376;4.628;2022-11-18T15:52:58;100226.78;;;8.52;100.00
24752;BME280;27246;52.376;4.628;2022-11-18T15:58:00;100210.66;;;8.49;100.00
24752;BME280;27246;52.376;4.628;2022-11-18T16:03:03;100224.59;;;8.48;100.00
24752;BME280;27246;52.376;4.628;2022-11-18T16:08:04;100228.56;;;8.45;100.00
24752;BME280;27246;52.376;4.628;2022-11-18T16:13:06;100240.19;;;8.47;100.00
24752;BME280;27246;52.376;4.628;2022-11-18T16:18:09;100230.09;;;8.48;100.00
24752;BME280;27246;52.376;4.628;2022-11-18T16:23:11;100232.44;;;8.51;100.00
24752;BME280;27246;52.376;4.628;2022-11-18T16:28:13;100243.59;;;8.49;100.00
24752;BME280;27246;52.376;4.628;2022-11-18T16:33:15;100250.34;;;8.47;100.00
24752;BME280;27246;52.376;4.628;2022-11-18T16:38:16;100246.31;;;8.57;100.00
24752;BME280;27246;52.376;4.628;2022-11-18T16:43:18;100249.72;;;8.59;100.00
24752;BME280;27246;52.376;4.628;2022-11-18T16:48:20;100260.31;;;8.63;100.00
24752;BME280;27246;52.376;4.628;2022-11-18T16:53:22;100269.97;;;8.58;100.00
24752;BME280;27246;52.376;4.628;2022-11-18T16:58:24;100273.53;;;8.59;100.00
24752;BME280;27246;52.376;4.628;2022-11-18T17:03:26;100280.84;;;8.52;100.00
24752;BME280;27246;52.376;4.628;2022-11-18T17:08:27;100285.09;;;8.54;100.00
24752;BME280;27246;52.376;4.628;2022-11-18T17:13:29;100298.50;;;8.49;100.00
24752;BME280;27246;52.376;4.628;2022-11-18T17:18:47;100302.78;;;8.52;100.00
24752;BME280;27246;52.376;4.628;2022-11-18T17:23:59;100303.03;;;8.42;100.00
24752;BME280;27246;52.376;4.628;2022-11-18T17:29:11;100306.81;;;8.41;100.00
24752;BME280;27246;52.376;4.628;2022-11-18T17:34:14;100309.47;;;8.49;100.00
24752;BME280;27246;52.376;4.628;2022-11-18T17:39:17;100314.72;;;8.59;100.00
24752;BME280;27246;52.376;4.628;2022-11-18T17:44:21;100320.47;;;8.49;100.00
24752;BME280;27246;52.376;4.628;2022-11-18T17:49:31;100324.63;;;8.45;100.00
24752;BME280;27246;52.376;4.628;2022-11-18T17:54:46;100325.94;;;8.49;100.00
24752;BME280;27246;52.376;4.628;2022-11-18T18:05:53;100342.19;;;8.59;100.00
24752;BME280;27246;52.376;4.628;2022-11-18T18:11:33;100353.22;;;8.51;100.00
24752;BME280;27246;52.376;4.628;2022-11-18T18:16:48;100352.88;;;8.54;100.00
24752;BME280;27246;52.376;4.628;2022-11-18T18:22:07;100368.50;;;8.53;100.00
24752;BME280;27246;52.376;4.628;2022-11-18T18:27:10;100358.06;;;8.49;100.00
24752;BME280;27246;52.376;4.628;2022-11-18T18:32:12;100363.72;;;8.47;100.00
24752;BME280;27246;52.376;4.628;2022-11-18T18:37:14;100376.72;;;8.53;100.00
24752;BME280;27246;52.376;4.628;2022-11-18T18:42:16;100389.91;;;8.58;100.00
24752;BME280;27246;52.376;4.628;2022-11-18T18:47:17;100394.06;;;8.54;100.00
24752;BME280;27246;52.376;4.628;2022-11-18T18:52:23;100389.91;;;8.58;100.00
24752;BME280;27246;52.376;4.628;2022-11-18T18:57:27;100387.41;;;8.48;100.00
24752;BME280;27246;52.376;4.628;2022-11-18T19:02:29;100399.41;;;8.47;100.00
24752;BME280;27246;52.376;4.628;2022-11-18T19:07:48;100404.53;;;8.50;100.00
24752;BME280;27246;52.376;4.628;2022-11-18T19:12:52;100411.00;;;8.34;100.00
24752;BME280;27246;52.376;4.628;2022-11-18T19:17:54;100410.63;;;8.37;100.00
24752;BME280;27246;52.376;4.628;2022-11-18T19:23:00;100415.97;;;8.31;100.00
24752;BME280;27246;52.376;4.628;2022-11-18T19:28:12;100417.69;;;8.32;100.00
24752;BME280;27246;52.376;4.628;2022-11-18T19:33:14;100435.72;;;8.26;100.00
24752;BME280;27246;52.376;4.628;2022-11-18T19:38:15;100435.28;;;8.14;100.00
24752;BME280;27246;52.376;4.628;2022-11-18T19:43:17;100448.00;;;8.07;100.00
24752;BME280;27246;52.376;4.628;2022-11-18T19:48:20;100447.13;;;8.07;100.00
24752;BME280;27246;52.376;4.628;2022-11-18T19:53:21;100463.59;;;8.07;100.00
24752;BME280;27246;52.376;4.628;2022-11-18T19:58:34;100474.44;;;8.00;100.00
24752;BME280;27246;52.376;4.628;2022-11-18T20:03:56;100483.09;;;7.64;100.00
24752;BME280;27246;52.376;4.628;2022-11-18T20:09:09;100483.78;;;7.66;100.00
24752;BME280;27246;52.376;4.628;2022-11-18T20:14:12;100485.16;;;7.70;100.00
24752;BME280;27246;52.376;4.628;2022-11-18T20:19:14;100495.28;;;7.61;100.00
24752;BME280;27246;52.376;4.628;2022-11-18T20:24:17;100500.59;;;7.63;100.00
24752;BME280;27246;52.376;4.628;2022-11-18T20:29:19;100506.41;;;7.60;100.00
24752;BME280;27246;52.376;4.628;2022-11-18T20:34:22;100520.66;;;7.55;100.00
24752;BME280;27246;52.376;4.628;2022-11-18T20:39:24;100529.03;;;7.21;100.00
24752;BME280;27246;52.376;4.628;2022-11-18T20:44:26;100537.94;;;7.31;100.00
24752;BME280;27246;52.376;4.628;2022-11-18T20:49:29;100543.38;;;6.98;100.00
24752;BME280;27246;52.376;4.628;2022-11-18T20:54:31;100553.16;;;7.26;100.00
24752;BME280;27246;52.376;4.628;2022-11-18T20:59:35;100549.88;;;7.06;100.00
24752;BME280;27246;52.376;4.628;2022-11-18T21:04:36;100564.75;;;6.87;100.00
24752;BME280;27246;52.376;4.628;2022-11-18T21:09:38;100563.34;;;6.74;100.00
24752;BME280;27246;52.376;4.628;2022-11-18T21:14:40;100559.06;;;6.64;100.00
24752;BME280;27246;52.376;4.628;2022-11-18T21:19:42;100570.69;;;6.57;100.00
24752;BME280;27246;52.376;4.628;2022-11-18T21:24:50;100575.75;;;6.44;100.00
24752;BME280;27246;52.376;4.628;2022-11-18T21:29:52;100586.66;;;6.36;100.00
24752;BME280;27246;52.376;4.628;2022-11-18T21:34:54;100591.97;;;6.37;100.00
24752;BME280;27246;52.376;4.628;2022-11-18T21:39:56;100600.53;;;6.43;100.00
24752;BME280;27246;52.376;4.628;2022-11-18T21:44:58;100602.88;;;6.29;100.00
24752;BME280;27246;52.376;4.628;2022-11-18T21:50:00;100605.69;;;6.11;100.00
24752;BME280;27246;52.376;4.628;2022-11-18T21:55:02;100612.25;;;6.00;100.00
24752;BME280;27246;52.376;4.628;2022-11-18T22:00:04;100615.16;;;5.99;100.00
24752;BME280;27246;52.376;4.628;2022-11-18T22:05:12;100630.16;;;5.69;100.00
24752;BME280;27246;52.376;4.628;2022-11-18T22:10:15;100631.16;;;5.68;100.00
24752;BME280;27246;52.376;4.628;2022-11-18T22:15:22;100641.31;;;5.75;100.00
24752;BME280;27246;52.376;4.628;2022-11-18T22:20:25;100650.41;;;5.84;100.00
24752;BME280;27246;52.376;4.628;2022-11-18T22:25:27;100665.19;;;5.73;100.00
24752;BME280;27246;52.376;4.628;2022-11-18T22:30:29;100664.91;;;5.40;100.00
24752;BME280;27246;52.376;4.628;2022-11-18T22:35:30;100673.97;;;5.59;100.00
24752;BME280;27246;52.376;4.628;2022-11-18T22:40:32;100667.38;;;5.52;99.13
24752;BME280;27246;52.376;4.628;2022-11-18T22:45:33;100669.66;;;5.56;98.90
24752;BME280;27246;52.376;4.628;2022-11-18T22:50:35;100677.28;;;5.17;98.99
24752;BME280;27246;52.376;4.628;2022-11-18T22:55:37;100689.63;;;5.21;98.79
24752;BME280;27246;52.376;4.628;2022-11-18T23:00:39;100686.09;;;5.11;98.03
24752;BME280;27246;52.376;4.628;2022-11-18T23:05:44;100699.31;;;5.06;98.51
24752;BME280;27246;52.376;4.628;2022-11-18T23:10:46;100691.22;;;4.96;98.35
24752;BME280;27246;52.376;4.628;2022-11-18T23:15:48;100708.03;;;4.81;98.74
24752;BME280;27246;52.376;4.628;2022-11-18T23:20:50;100714.28;;;5.01;98.11
24752;BME280;27246;52.376;4.628;2022-11-18T23:25:51;100720.66;;;4.92;97.61
24752;BME280;27246;52.376;4.628;2022-11-18T23:36:09;100731.88;;;4.79;97.95
24752;BME280;27246;52.376;4.628;2022-11-18T23:41:14;100726.09;;;4.92;97.18
24752;BME280;27246;52.376;4.628;2022-11-18T23:46:16;100730.88;;;4.90;97.85
24752;BME280;27246;52.376;4.628;2022-11-18T23:51:19;100728.41;;;4.97;97.70
24752;BME280;27246;52.376;4.628;2022-11-18T23:56:24;100736.75;;;4.86;96.98
